Avery, Arkansas
Current Conditions -  °F | °C
As of 1:53 PM on Tuesday 21 Oct 2014 (Local Time) from KLLQ Reporting Station
Few Clouds Few Clouds  
Wind Chill: 76°   Ceiling: Unl
Heat Index: 76°   Visibility: 10mi
Dew Point: 59°   Wind: 3mph
Humidity: 56%   Direction: NA
Pressure: 30.05"   Gusts: NA
Location:  33.9283°N, 91.468°W
Report Text: KLLQ 211853Z AUTO VRB03KT 10SM FEW040 24/15 A3005 RMK AO2 SLP173 T02440150
Loading
Personal Weather Stations






























Interactive Weather Map
Tropical Storm Tracking
New forecast layout! Learn more

10-Day Weather Forecast

Advertisements
Track Severe Weather on mobile